Time;durP1;ratioP1;P1;durP2;ratioP2;P2;SDS_P1;SDS_P2;PMS_P1;PMS_P2;Temp;Humidity;BMP_temperature;BMP_pressure;BME280_temperature;BME280_humidity;BME280_pressure;Samples;Min_cycle;Max_cycle;Signal;HPM_P1;HPM_P2
2022/10/15 00:00:01;;;;;;;;;;;11.70;99.90;;;;;;5090092;28;19977;-71
2022/10/15 00:02:26;;;;;;;;;;;11.70;99.90;;;;;;5085831;28;19981;-71
2022/10/15 00:04:52;;;;;;;;;;;11.70;99.90;;;;;;5083385;28;19921;-71
2022/10/15 00:07:17;;;;;;;;;;;11.70;99.90;;;;;;5084304;28;19920;-71
2022/10/15 00:09:43;;;;;;;;;;;11.70;99.90;;;;;;5085848;28;20332;-71
2022/10/15 00:12:08;;;;;;;;;;;11.70;99.90;;;;;;5083985;28;19925;-71
2022/10/15 00:14:34;;;;;;;;;;;11.70;99.90;;;;;;5085503;28;19924;-71
2022/10/15 00:16:59;;;;;;;;;;;11.70;99.90;;;;;;5088017;28;20614;-71
2022/10/15 00:19:25;;;;;;;;;;;11.70;99.90;;;;;;5079892;28;19924;-70
2022/10/15 00:21:51;;;;;;;;;;;11.70;99.90;;;;;;5088391;28;19931;-71
2022/10/15 00:24:16;;;;;;;;;;;11.70;99.90;;;;;;5089584;28;19920;-71
2022/10/15 00:26:41;;;;;;;;;;;11.70;99.90;;;;;;5089809;28;19973;-71
2022/10/15 00:29:07;;;;;;;;;;;11.80;99.90;;;;;;5080469;28;19924;-71
2022/10/15 00:31:32;;;;;;;;;;;11.70;99.90;;;;;;5088709;28;20290;-72
2022/10/15 00:33:59;;;;;;;;;;;11.70;99.90;;;;;;5084450;28;19929;-71
2022/10/15 00:36:29;;;;;;;;;;;11.70;99.90;;;;;;5081729;28;20378;-71
2022/10/15 00:38:55;;;;;;;;;;;11.70;99.90;;;;;;5083982;28;19955;-72
2022/10/15 00:41:22;;;;;;;;;;;11.70;99.90;;;;;;5084225;28;19963;-71
2022/10/15 00:43:48;;;;;;;;;;;11.70;99.90;;;;;;5079539;28;20388;-71
2022/10/15 00:46:20;;;;;;;;;;;11.70;99.90;;;;;;5086058;28;19924;-71
2022/10/15 00:48:48;;;;;;;;;;;11.60;99.90;;;;;;5072811;28;19924;-71
2022/10/15 00:51:15;;;;;;;;;;;11.70;99.90;;;;;;5081688;28;19963;-71
2022/10/15 00:53:40;;;;;;;;;;;11.70;99.90;;;;;;5089632;28;19995;-71
2022/10/15 00:56:06;;;;;;;;;;;11.60;99.90;;;;;;5073146;28;20003;-71
2022/10/15 00:58:33;;;;;;;;;;;11.60;99.90;;;;;;5073141;28;20274;-71
2022/10/15 01:00:59;;;;;;;;;;;11.60;99.90;;;;;;5071759;28;20036;-70
2022/10/15 01:03:25;;;;;;;;;;;11.60;99.90;;;;;;5078427;28;20349;-71
2022/10/15 01:05:51;;;;;;;;;;;11.60;99.90;;;;;;5070235;28;20011;-70
2022/10/15 01:08:16;;;;;;;;;;;11.60;99.90;;;;;;5088779;28;19934;-71
2022/10/15 01:10:51;;;;;;;;;;;11.60;99.90;;;;;;5090023;28;19920;-71
2022/10/15 01:13:29;;;;;;;;;;;11.60;99.90;;;;;;5082352;28;20246;-72
2022/10/15 01:15:58;;;;;;;;;;;11.60;99.90;;;;;;5084643;28;19963;-72
2022/10/15 01:18:27;;;;;;;;;;;11.60;99.90;;;;;;5076608;28;19959;-71
2022/10/15 01:21:26;;;;;;;;;;;11.60;99.90;;;;;;5086455;28;19926;-71
2022/10/15 01:23:54;;;;;;;;;;;11.60;99.90;;;;;;5024491;28;20019;-71
2022/10/15 01:26:22;;;;;;;;;;;11.60;99.90;;;;;;5090266;28;19965;-70
2022/10/15 01:28:51;;;;;;;;;;;11.60;99.90;;;;;;5070094;28;19932;-72
2022/10/15 01:31:35;;;;;;;;;;;11.60;99.90;;;;;;5079975;28;19934;-71
2022/10/15 01:34:03;;;;;;;;;;;11.60;99.90;;;;;;5071725;28;19928;-71
2022/10/15 01:36:36;;;;;;;;;;;11.60;99.90;;;;;;5078945;28;19994;-71
2022/10/15 01:39:04;;;;;;;;;;;11.60;99.90;;;;;;5086632;28;19928;-70
2022/10/15 01:41:40;;;;;;;;;;;11.60;99.90;;;;;;5086715;28;20281;-70
2022/10/15 01:44:11;;;;;;;;;;;11.60;99.90;;;;;;5085856;28;19924;-70
2022/10/15 01:46:37;;;;;;;;;;;11.60;99.90;;;;;;5080537;28;19928;-71
2022/10/15 01:49:04;;;;;;;;;;;11.60;99.90;;;;;;5088814;28;19924;-70
2022/10/15 01:51:30;;;;;;;;;;;11.60;99.90;;;;;;5087867;28;19924;-70
2022/10/15 01:53:57;;;;;;;;;;;11.60;99.90;;;;;;5083092;28;20409;-71
2022/10/15 01:56:23;;;;;;;;;;;11.60;99.90;;;;;;5062544;28;20361;-70
2022/10/15 01:58:51;;;;;;;;;;;11.60;99.90;;;;;;5076631;28;19985;-70
2022/10/15 02:01:17;;;;;;;;;;;11.60;99.90;;;;;;5074584;28;19939;-71
2022/10/15 02:03:49;;;;;;;;;;;11.60;99.90;;;;;;5089556;28;19920;-70
2022/10/15 02:06:27;;;;;;;;;;;11.60;99.90;;;;;;5089396;28;20525;-70
2022/10/15 02:09:16;;;;;;;;;;;11.60;99.90;;;;;;5082684;28;19932;-71
2022/10/15 02:11:56;;;;;;;;;;;11.60;99.90;;;;;;5065977;28;19928;-70
2022/10/15 02:14:32;;;;;;;;;;;11.70;99.90;;;;;;5081546;28;19920;-70
2022/10/15 02:17:05;;;;;;;;;;;11.70;99.90;;;;;;5088483;28;19927;-70
2022/10/15 02:19:48;;;;;;;;;;;11.70;99.90;;;;;;5086065;28;20320;-70
2022/10/15 02:22:17;;;;;;;;;;;11.70;99.90;;;;;;5082533;28;19924;-70
2022/10/15 02:24:52;;;;;;;;;;;11.70;99.90;;;;;;5089996;28;19924;-70
2022/10/15 02:27:19;;;;;;;;;;;11.70;99.90;;;;;;5089536;28;19926;-70
2022/10/15 02:29:46;;;;;;;;;;;11.70;99.90;;;;;;5090552;28;19924;-70
2022/10/15 02:32:12;;;;;;;;;;;11.70;99.90;;;;;;5088763;28;19942;-70
2022/10/15 02:34:37;;;;;;;;;;;11.70;99.90;;;;;;5067228;28;19924;-70
2022/10/15 02:37:04;;;;;;;;;;;11.70;99.90;;;;;;5089213;28;20039;-71
2022/10/15 02:39:29;;;;;;;;;;;11.70;99.90;;;;;;5081002;28;19928;-71
2022/10/15 02:41:55;;;;;;;;;;;11.70;99.90;;;;;;5089783;28;20062;-71
2022/10/15 02:44:21;;;;;;;;;;;11.70;99.90;;;;;;5092205;28;19927;-70
2022/10/15 02:46:46;;;;;;;;;;;11.70;99.90;;;;;;5090640;28;20476;-70
2022/10/15 02:49:12;;;;;;;;;;;11.70;99.90;;;;;;5082070;28;20392;-71
2022/10/15 02:51:37;;;;;;;;;;;11.70;99.90;;;;;;5072775;28;20615;-71
2022/10/15 02:54:04;;;;;;;;;;;11.70;99.90;;;;;;5085224;28;19920;-72
2022/10/15 02:56:29;;;;;;;;;;;11.70;99.90;;;;;;5062347;28;19928;-70
2022/10/15 02:58:55;;;;;;;;;;;11.70;99.90;;;;;;5086429;28;19926;-71
2022/10/15 03:01:20;;;;;;;;;;;11.70;99.90;;;;;;5083887;28;19920;-70
2022/10/15 03:03:46;;;;;;;;;;;11.70;99.90;;;;;;5075286;28;20027;-71
2022/10/15 03:06:12;;;;;;;;;;;11.70;99.90;;;;;;5088459;28;19923;-71
2022/10/15 03:08:37;;;;;;;;;;;11.70;99.90;;;;;;5087648;28;19939;-70
2022/10/15 03:11:03;;;;;;;;;;;11.70;99.90;;;;;;5088727;28;20309;-71
2022/10/15 03:13:28;;;;;;;;;;;11.70;99.90;;;;;;5084241;28;20379;-71
2022/10/15 03:15:54;;;;;;;;;;;11.70;99.90;;;;;;5088972;28;19924;-70
2022/10/15 03:18:19;;;;;;;;;;;11.70;99.90;;;;;;5080885;28;19927;-70
2022/10/15 03:20:51;;;;;;;;;;;11.70;99.90;;;;;;5089764;28;20499;-70
2022/10/15 03:23:17;;;;;;;;;;;11.70;99.90;;;;;;5091329;28;19928;-70
2022/10/15 03:25:42;;;;;;;;;;;11.60;99.90;;;;;;5082265;28;19970;-71
2022/10/15 03:28:08;;;;;;;;;;;11.60;99.90;;;;;;5085854;28;19924;-70
2022/10/15 03:30:33;;;;;;;;;;;11.60;99.90;;;;;;5088542;28;19921;-71
2022/10/15 03:32:59;;;;;;;;;;;11.60;99.90;;;;;;5088808;28;19924;-70
2022/10/15 03:35:24;;;;;;;;;;;11.70;99.90;;;;;;5078714;28;19927;-70
2022/10/15 03:37:50;;;;;;;;;;;11.60;99.90;;;;;;5071909;28;19971;-70
2022/10/15 03:40:15;;;;;;;;;;;11.70;99.90;;;;;;5084330;28;19948;-71
2022/10/15 03:42:41;;;;;;;;;;;11.70;99.90;;;;;;5066290;28;20333;-70
2022/10/15 03:45:07;;;;;;;;;;;11.70;99.90;;;;;;5088964;28;20313;-70
2022/10/15 03:47:32;;;;;;;;;;;11.70;99.90;;;;;;5081346;28;19970;-70
2022/10/15 03:49:58;;;;;;;;;;;11.70;99.90;;;;;;5080128;28;19924;-71
2022/10/15 03:52:23;;;;;;;;;;;11.70;99.90;;;;;;5073789;28;19920;-70
2022/10/15 03:54:48;;;;;;;;;;;11.70;99.90;;;;;;5089855;28;20026;-70
2022/10/15 03:57:14;;;;;;;;;;;11.60;99.90;;;;;;5090809;28;19924;-71
2022/10/15 03:59:39;;;;;;;;;;;11.60;99.90;;;;;;5084583;28;20314;-71
2022/10/15 04:02:05;;;;;;;;;;;11.60;99.90;;;;;;5078908;28;19931;-70
2022/10/15 04:04:31;;;;;;;;;;;11.60;99.90;;;;;;5071131;28;20007;-70
2022/10/15 04:06:56;;;;;;;;;;;11.60;99.90;;;;;;5089156;28;19967;-70
2022/10/15 04:09:22;;;;;;;;;;;11.60;99.90;;;;;;5089135;28;20282;-71
2022/10/15 04:11:47;;;;;;;;;;;11.60;99.90;;;;;;5089754;28;20540;-70
2022/10/15 04:14:13;;;;;;;;;;;11.60;99.90;;;;;;5089802;28;19920;-70
2022/10/15 04:16:38;;;;;;;;;;;11.60;99.90;;;;;;5086208;28;19976;-71
2022/10/15 04:19:04;;;;;;;;;;;11.60;99.90;;;;;;5084420;28;19976;-70
2022/10/15 04:21:29;;;;;;;;;;;11.60;99.90;;;;;;5087085;28;19960;-70
2022/10/15 04:23:55;;;;;;;;;;;11.60;99.90;;;;;;5071756;28;19976;-71
2022/10/15 04:26:20;;;;;;;;;;;11.60;99.90;;;;;;5087863;28;19920;-71
2022/10/15 04:28:48;;;;;;;;;;;11.50;99.90;;;;;;5082167;28;19928;-70
2022/10/15 04:31:14;;;;;;;;;;;11.50;99.90;;;;;;5073149;28;19975;-70
2022/10/15 04:33:40;;;;;;;;;;;11.50;99.90;;;;;;5072930;28;19920;-70
2022/10/15 04:36:06;;;;;;;;;;;11.50;99.90;;;;;;5085722;28;19924;-70
2022/10/15 04:38:32;;;;;;;;;;;11.50;99.90;;;;;;5088023;28;19923;-70
2022/10/15 04:41:06;;;;;;;;;;;11.40;99.90;;;;;;5084307;28;19939;-71
2022/10/15 04:43:31;;;;;;;;;;;11.40;99.90;;;;;;5072710;28;20273;-70
2022/10/15 04:46:01;;;;;;;;;;;11.50;99.90;;;;;;5069786;28;19920;-70
2022/10/15 04:48:27;;;;;;;;;;;11.40;99.90;;;;;;5085251;28;20289;-70
2022/10/15 04:50:52;;;;;;;;;;;11.40;99.90;;;;;;5081571;28;19931;-70
2022/10/15 04:53:18;;;;;;;;;;;11.40;99.90;;;;;;5084211;28;19920;-71
2022/10/15 04:55:43;;;;;;;;;;;11.40;99.90;;;;;;5091476;28;19927;-71
2022/10/15 04:58:09;;;;;;;;;;;11.30;99.90;;;;;;5084081;28;19924;-70
2022/10/15 05:00:34;;;;;;;;;;;11.30;99.90;;;;;;5063889;28;19973;-70
2022/10/15 05:03:00;;;;;;;;;;;11.30;99.90;;;;;;5091476;28;19920;-71
2022/10/15 05:05:25;;;;;;;;;;;11.30;99.90;;;;;;5089531;28;19920;-70
2022/10/15 05:07:50;;;;;;;;;;;11.30;99.90;;;;;;5089386;28;19924;-71
2022/10/15 05:10:16;;;;;;;;;;;11.30;99.90;;;;;;5081233;28;20404;-71
2022/10/15 05:12:41;;;;;;;;;;;11.20;99.90;;;;;;5083742;28;19970;-72
2022/10/15 05:15:07;;;;;;;;;;;11.20;99.90;;;;;;5077547;28;19995;-71
2022/10/15 05:17:33;;;;;;;;;;;11.20;99.90;;;;;;5082528;28;19931;-71
2022/10/15 05:19:58;;;;;;;;;;;11.20;99.90;;;;;;5078695;28;20288;-72
2022/10/15 05:22:24;;;;;;;;;;;11.20;99.90;;;;;;5084303;28;19924;-71
2022/10/15 05:24:49;;;;;;;;;;;11.20;99.90;;;;;;5083547;28;19924;-71
2022/10/15 05:27:15;;;;;;;;;;;11.10;99.90;;;;;;5065552;28;20385;-71
2022/10/15 05:29:40;;;;;;;;;;;11.10;99.90;;;;;;5070044;28;19936;-71
2022/10/15 05:32:06;;;;;;;;;;;11.20;99.90;;;;;;5069854;28;19920;-71
2022/10/15 05:34:32;;;;;;;;;;;11.10;99.90;;;;;;5075900;28;19920;-71
2022/10/15 05:36:58;;;;;;;;;;;11.10;99.90;;;;;;5071052;28;19920;-71
2022/10/15 05:39:24;;;;;;;;;;;11.10;99.90;;;;;;5076461;28;19935;-71
2022/10/15 05:41:49;;;;;;;;;;;11.00;99.90;;;;;;5069058;28;19983;-71
2022/10/15 05:44:14;;;;;;;;;;;11.00;99.90;;;;;;5088581;28;19959;-71
2022/10/15 05:46:40;;;;;;;;;;;11.10;99.90;;;;;;5089588;28;20258;-71
2022/10/15 05:49:05;;;;;;;;;;;11.00;99.90;;;;;;5074042;28;20479;-71
2022/10/15 05:51:31;;;;;;;;;;;11.00;99.90;;;;;;5088825;28;19927;-71
2022/10/15 05:53:57;;;;;;;;;;;11.00;99.90;;;;;;5093913;28;19920;-71
2022/10/15 05:56:24;;;;;;;;;;;11.00;99.90;;;;;;5093993;28;20003;-71
2022/10/15 05:58:49;;;;;;;;;;;11.00;99.90;;;;;;5066024;28;20015;-71
2022/10/15 06:01:15;;;;;;;;;;;11.00;99.90;;;;;;5080337;28;20007;-72
2022/10/15 06:03:41;;;;;;;;;;;11.10;99.90;;;;;;5073058;28;20332;-71
2022/10/15 06:06:23;;;;;;;;;;;11.10;99.90;;;;;;5084728;28;19920;-73
2022/10/15 06:08:49;;;;;;;;;;;11.10;99.90;;;;;;5076006;28;19925;-71
2022/10/15 06:11:15;;;;;;;;;;;11.10;99.90;;;;;;5090730;28;19973;-72
2022/10/15 06:13:41;;;;;;;;;;;11.10;99.90;;;;;;5089884;28;19934;-72
2022/10/15 06:16:07;;;;;;;;;;;11.10;99.90;;;;;;5089844;28;20014;-71
2022/10/15 06:18:33;;;;;;;;;;;11.20;99.90;;;;;;5085382;28;19924;-72
2022/10/15 06:20:59;;;;;;;;;;;11.20;99.90;;;;;;5089043;28;19928;-72
2022/10/15 06:23:24;;;;;;;;;;;11.20;99.90;;;;;;5088948;28;19947;-72
2022/10/15 06:25:50;;;;;;;;;;;11.20;99.90;;;;;;5083958;28;19928;-72
2022/10/15 06:28:15;;;;;;;;;;;11.30;99.90;;;;;;5087565;28;19951;-72
2022/10/15 06:30:41;;;;;;;;;;;11.30;99.90;;;;;;5079928;28;19927;-72
2022/10/15 06:33:07;;;;;;;;;;;11.30;99.90;;;;;;5083222;28;19927;-72
2022/10/15 06:35:34;;;;;;;;;;;11.30;99.90;;;;;;5084076;28;20003;-71
2022/10/15 06:38:00;;;;;;;;;;;11.40;99.90;;;;;;5092085;28;19936;-71
2022/10/15 06:40:25;;;;;;;;;;;11.40;99.90;;;;;;5077605;28;19964;-71
2022/10/15 06:42:51;;;;;;;;;;;11.40;99.90;;;;;;5087146;28;19924;-72
2022/10/15 06:45:16;;;;;;;;;;;11.40;99.90;;;;;;5092428;28;19970;-71
2022/10/15 06:47:42;;;;;;;;;;;11.50;99.90;;;;;;5085774;28;20015;-71
2022/10/15 06:50:08;;;;;;;;;;;11.50;99.90;;;;;;5080431;28;19931;-72
2022/10/15 06:52:33;;;;;;;;;;;11.50;99.90;;;;;;5084463;28;19986;-72
2022/10/15 06:54:59;;;;;;;;;;;11.60;99.90;;;;;;5072454;28;19924;-72
2022/10/15 06:57:26;;;;;;;;;;;11.60;99.90;;;;;;5072545;28;19943;-72
2022/10/15 06:59:51;;;;;;;;;;;11.60;99.90;;;;;;5084322;28;19946;-72
2022/10/15 07:02:18;;;;;;;;;;;11.70;99.90;;;;;;5072873;28;20358;-72
2022/10/15 07:04:44;;;;;;;;;;;11.70;99.90;;;;;;5076311;28;20441;-72
2022/10/15 07:07:09;;;;;;;;;;;11.70;99.90;;;;;;5070184;28;19993;-72
2022/10/15 07:09:35;;;;;;;;;;;11.70;99.90;;;;;;5079256;28;20055;-72
2022/10/15 07:12:01;;;;;;;;;;;11.80;99.90;;;;;;5078431;28;19928;-72
2022/10/15 07:14:26;;;;;;;;;;;11.80;99.90;;;;;;5077018;28;20426;-72
2022/10/15 07:16:52;;;;;;;;;;;11.90;99.90;;;;;;5078515;28;19928;-72
2022/10/15 07:19:17;;;;;;;;;;;11.90;99.90;;;;;;5091839;28;19920;-72
2022/10/15 07:21:43;;;;;;;;;;;12.00;99.90;;;;;;5092254;28;19935;-73
2022/10/15 07:24:08;;;;;;;;;;;12.00;99.90;;;;;;5077089;28;19967;-73
2022/10/15 07:26:34;;;;;;;;;;;12.20;99.90;;;;;;5082014;28;19920;-73
2022/10/15 07:28:59;;;;;;;;;;;12.30;99.90;;;;;;5071248;28;19936;-73
2022/10/15 07:31:25;;;;;;;;;;;12.40;99.90;;;;;;5076650;28;20271;-73
2022/10/15 07:33:51;;;;;;;;;;;12.50;99.90;;;;;;5061769;28;19921;-73
2022/10/15 07:36:19;;;;;;;;;;;12.50;99.90;;;;;;5071795;28;19926;-73
2022/10/15 07:38:45;;;;;;;;;;;12.60;99.90;;;;;;5079954;28;20465;-73
2022/10/15 07:41:10;;;;;;;;;;;12.50;99.90;;;;;;5087444;28;20011;-73
2022/10/15 07:43:36;;;;;;;;;;;12.60;99.90;;;;;;5077281;28;19943;-73
2022/10/15 07:46:02;;;;;;;;;;;12.60;99.90;;;;;;5066371;28;19921;-73
2022/10/15 07:48:28;;;;;;;;;;;12.60;99.90;;;;;;5074831;28;20300;-73
2022/10/15 07:50:57;;;;;;;;;;;12.70;99.90;;;;;;5083078;28;20007;-72
2022/10/15 07:53:23;;;;;;;;;;;12.80;99.90;;;;;;5082116;28;19931;-72
2022/10/15 07:55:48;;;;;;;;;;;12.80;99.90;;;;;;5077977;28;19924;-72
2022/10/15 07:58:14;;;;;;;;;;;12.90;99.90;;;;;;5083538;28;19920;-72
2022/10/15 08:00:39;;;;;;;;;;;13.00;99.90;;;;;;5073441;28;19959;-72
2022/10/15 08:03:05;;;;;;;;;;;13.10;99.90;;;;;;5092888;28;20286;-72
2022/10/15 08:05:30;;;;;;;;;;;13.20;99.90;;;;;;5091145;28;19920;-72
2022/10/15 08:07:56;;;;;;;;;;;13.30;99.90;;;;;;5074582;28;20290;-72
2022/10/15 08:10:21;;;;;;;;;;;13.40;99.90;;;;;;5086223;28;19932;-72
2022/10/15 08:12:47;;;;;;;;;;;13.50;99.90;;;;;;5071834;28;19924;-72
2022/10/15 08:15:12;;;;;;;;;;;13.60;99.90;;;;;;5074796;28;19921;-72
2022/10/15 08:17:38;;;;;;;;;;;13.70;99.90;;;;;;5083234;28;19920;-72
2022/10/15 08:20:03;;;;;;;;;;;13.70;99.90;;;;;;5070829;28;20598;-72
2022/10/15 08:22:29;;;;;;;;;;;13.80;99.90;;;;;;5054062;28;20042;-72
2022/10/15 08:24:54;;;;;;;;;;;14.00;99.90;;;;;;5070803;28;20461;-72
2022/10/15 08:27:20;;;;;;;;;;;14.10;99.90;;;;;;5074800;28;19930;-72
2022/10/15 08:29:45;;;;;;;;;;;14.20;99.90;;;;;;5082140;28;20378;-72
2022/10/15 08:32:11;;;;;;;;;;;14.30;99.90;;;;;;5082269;28;20019;-72
2022/10/15 08:34:36;;;;;;;;;;;14.40;99.90;;;;;;5083432;28;19931;-72
2022/10/15 08:37:02;;;;;;;;;;;14.40;99.90;;;;;;5064857;28;19928;-73
2022/10/15 08:39:27;;;;;;;;;;;14.30;99.90;;;;;;5073686;28;19924;-73
2022/10/15 08:41:58;;;;;;;;;;;14.20;99.90;;;;;;5071382;28;20418;-72
2022/10/15 08:44:26;;;;;;;;;;;14.10;99.90;;;;;;5084908;28;19976;-73
2022/10/15 08:46:58;;;;;;;;;;;14.10;99.90;;;;;;5081906;28;19920;-72
2022/10/15 08:49:33;;;;;;;;;;;14.00;99.90;;;;;;5086873;28;19924;-73
2022/10/15 08:52:08;;;;;;;;;;;14.10;99.90;;;;;;5073835;28;20011;-72
2022/10/15 08:54:34;;;;;;;;;;;14.20;99.90;;;;;;5075926;28;19931;-72
2022/10/15 08:57:08;;;;;;;;;;;14.30;99.90;;;;;;5083859;28;19924;-73
2022/10/15 08:59:42;;;;;;;;;;;14.30;99.90;;;;;;5079372;28;19935;-73
2022/10/15 09:02:12;;;;;;;;;;;14.40;99.90;;;;;;5079098;28;19997;-73
2022/10/15 09:04:38;;;;;;;;;;;14.60;99.90;;;;;;5078070;28;19921;-73
2022/10/15 09:07:11;;;;;;;;;;;14.70;99.90;;;;;;5079560;28;19955;-73
2022/10/15 09:09:50;;;;;;;;;;;14.80;99.90;;;;;;5084424;28;19924;-73
2022/10/15 09:12:34;;;;;;;;;;;14.90;99.90;;;;;;5086593;28;20023;-73
2022/10/15 09:15:00;;;;;;;;;;;14.90;99.90;;;;;;5090183;28;19927;-73
2022/10/15 09:17:30;;;;;;;;;;;14.90;99.90;;;;;;5085065;28;19970;-73
2022/10/15 09:19:56;;;;;;;;;;;15.00;99.90;;;;;;5076808;28;19943;-73
2022/10/15 09:22:26;;;;;;;;;;;15.00;99.90;;;;;;5075378;28;20381;-73
2022/10/15 09:24:52;;;;;;;;;;;14.80;99.90;;;;;;5075254;28;20382;-73
2022/10/15 09:27:30;;;;;;;;;;;14.80;99.90;;;;;;5075504;28;19920;-73
2022/10/15 09:29:55;;;;;;;;;;;14.90;99.90;;;;;;5071898;28;19932;-73
2022/10/15 09:32:30;;;;;;;;;;;14.70;99.90;;;;;;5079158;28;19924;-73
2022/10/15 09:35:01;;;;;;;;;;;14.60;99.90;;;;;;5077592;28;20101;-73
2022/10/15 09:37:30;;;;;;;;;;;14.50;99.90;;;;;;5071425;23;19925;-70
2022/10/15 09:40:19;;;;;;;;;;;14.40;99.90;;;;;;5065016;28;20015;-70
2022/10/15 09:42:45;;;;;;;;;;;14.30;99.90;;;;;;5063767;28;19939;-70
2022/10/15 09:45:12;;;;;;;;;;;14.20;99.90;;;;;;5062534;28;19952;-69
2022/10/15 09:47:39;;;;;;;;;;;14.20;99.90;;;;;;5045874;28;19924;-70
2022/10/15 09:50:05;;;;;;;;;;;14.20;99.90;;;;;;5063180;28;20318;-69
2022/10/15 09:52:48;;;;;;;;;;;14.10;99.90;;;;;;5060017;28;19927;-69
2022/10/15 09:55:13;;;;;;;;;;;14.10;99.90;;;;;;5068771;28;20246;-70
2022/10/15 09:57:39;;;;;;;;;;;14.10;99.90;;;;;;5066639;28;19932;-70
2022/10/15 10:00:06;;;;;;;;;;;14.10;99.90;;;;;;5061479;28;20461;-70
2022/10/15 10:02:32;;;;;;;;;;;14.10;99.90;;;;;;5062360;28;19920;-70
2022/10/15 10:05:16;;;;;;;;;;;14.10;99.90;;;;;;5068233;28;19951;-70
2022/10/15 10:07:41;;;;;;;;;;;14.10;99.90;;;;;;5058368;28;20361;-70
2022/10/15 10:10:24;;;;;;;;;;;14.00;99.90;;;;;;5063369;28;19925;-70
2022/10/15 10:12:50;;;;;;;;;;;14.00;99.90;;;;;;5063852;28;19920;-70
2022/10/15 10:15:35;;;;;;;;;;;13.90;99.90;;;;;;5063942;28;19977;-69
2022/10/15 10:18:04;;;;;;;;;;;13.90;99.90;;;;;;5047877;28;20358;-69
2022/10/15 10:20:30;;;;;;;;;;;13.80;99.90;;;;;;5066241;28;19928;-70
2022/10/15 10:22:59;;;;;;;;;;;13.90;99.90;;;;;;5066772;28;20421;-69
2022/10/15 10:25:25;;;;;;;;;;;13.90;99.90;;;;;;5064182;28;19921;-69
2022/10/15 10:27:51;;;;;;;;;;;13.90;99.90;;;;;;5069244;28;19932;-69
2022/10/15 10:30:16;;;;;;;;;;;14.00;99.90;;;;;;5068121;28;19974;-69
2022/10/15 10:32:42;;;;;;;;;;;14.00;99.90;;;;;;5068913;28;19927;-70
2022/10/15 10:35:18;;;;;;;;;;;14.00;99.90;;;;;;5062143;28;19991;-70
2022/10/15 10:37:43;;;;;;;;;;;14.10;99.90;;;;;;5072587;28;20390;-70
2022/10/15 10:40:30;;;;;;;;;;;14.10;99.90;;;;;;5067089;28;19924;-70
2022/10/15 10:43:10;;;;;;;;;;;14.10;99.90;;;;;;5070733;28;19921;-70
2022/10/15 10:45:36;;;;;;;;;;;14.20;99.90;;;;;;5066461;28;19925;-70
2022/10/15 10:48:21;;;;;;;;;;;14.30;99.90;;;;;;5070456;28;19927;-71
2022/10/15 10:50:47;;;;;;;;;;;14.40;99.90;;;;;;5070802;28;19931;-70
2022/10/15 10:53:20;;;;;;;;;;;14.40;99.90;;;;;;5067286;28;19924;-69
2022/10/15 10:55:47;;;;;;;;;;;14.50;99.90;;;;;;5069247;28;19959;-70
2022/10/15 10:58:20;;;;;;;;;;;14.50;99.90;;;;;;5071147;28;20006;-70
2022/10/15 11:00:46;;;;;;;;;;;14.50;99.90;;;;;;5067252;28;19924;-70
2022/10/15 11:03:49;;;;;;;;;;;14.60;99.90;;;;;;5066707;28;19974;-70
2022/10/15 11:06:22;;;;;;;;;;;14.70;99.90;;;;;;4989170;28;19929;-70
2022/10/15 11:08:47;;;;;;;;;;;14.90;99.90;;;;;;5054802;28;19928;-69
2022/10/15 11:11:20;;;;;;;;;;;15.10;99.90;;;;;;5062407;28;19975;-70
2022/10/15 11:13:46;;;;;;;;;;;15.20;99.90;;;;;;5069042;28;19925;-70
2022/10/15 11:16:11;;;;;;;;;;;15.30;99.90;;;;;;5068432;28;20069;-70
2022/10/15 11:18:55;;;;;;;;;;;15.50;99.90;;;;;;5063083;28;19924;-70
2022/10/15 11:21:24;;;;;;;;;;;15.60;99.90;;;;;;5070236;28;19928;-70
2022/10/15 11:23:56;;;;;;;;;;;15.70;99.90;;;;;;5063306;28;19982;-70
2022/10/15 11:26:21;;;;;;;;;;;15.70;99.90;;;;;;5055287;28;19931;-70
2022/10/15 11:28:47;;;;;;;;;;;15.60;99.90;;;;;;5070881;28;19932;-70
2022/10/15 11:31:19;;;;;;;;;;;15.60;99.90;;;;;;5066689;28;19956;-70
2022/10/15 11:33:50;;;;;;;;;;;15.60;99.90;;;;;;5069437;28;19937;-70
2022/10/15 11:36:22;;;;;;;;;;;15.50;99.90;;;;;;5053127;28;19924;-70
2022/10/15 11:39:07;;;;;;;;;;;15.40;99.90;;;;;;5069428;28;19967;-70
2022/10/15 11:41:32;;;;;;;;;;;15.50;99.90;;;;;;5067700;28;19929;-69
2022/10/15 11:43:58;;;;;;;;;;;15.60;99.90;;;;;;5069338;28;19947;-70
2022/10/15 11:46:31;;;;;;;;;;;15.60;99.90;;;;;;5043210;28;20073;-70
2022/10/15 11:49:03;;;;;;;;;;;15.60;99.90;;;;;;5066566;28;20055;-70
2022/10/15 11:51:36;;;;;;;;;;;15.60;99.90;;;;;;5070390;28;19971;-70
2022/10/15 11:54:08;;;;;;;;;;;15.50;99.90;;;;;;5052847;28;19928;-70
2022/10/15 11:56:35;;;;;;;;;;;15.50;99.90;;;;;;5069617;28;19932;-70
2022/10/15 11:59:04;;;;;;;;;;;15.60;99.90;;;;;;5069164;28;20289;-71
2022/10/15 12:01:33;;;;;;;;;;;15.60;99.90;;;;;;5059072;28;19921;-70
2022/10/15 12:04:01;;;;;;;;;;;15.60;99.90;;;;;;5063376;28;20416;-70
2022/10/15 12:06:29;;;;;;;;;;;15.60;99.90;;;;;;5064334;28;19968;-70
2022/10/15 12:08:56;;;;;;;;;;;15.60;99.90;;;;;;5064350;28;20885;-70
2022/10/15 12:11:24;;;;;;;;;;;15.60;99.90;;;;;;5065629;28;19920;-71
2022/10/15 12:13:55;;;;;;;;;;;15.60;99.90;;;;;;5048719;28;19943;-70
2022/10/15 12:16:32;;;;;;;;;;;15.60;99.90;;;;;;5070034;28;19970;-70
2022/10/15 12:19:17;;;;;;;;;;;15.60;99.90;;;;;;5067979;28;19921;-70
2022/10/15 12:21:58;;;;;;;;;;;15.70;99.90;;;;;;5069334;28;19931;-71
2022/10/15 12:24:36;;;;;;;;;;;15.70;99.90;;;;;;5066315;28;19986;-70
2022/10/15 12:27:15;;;;;;;;;;;15.70;99.90;;;;;;5066474;28;19973;-70
2022/10/15 12:29:40;;;;;;;;;;;15.70;99.90;;;;;;5048779;28;19932;-70
2022/10/15 12:32:20;;;;;;;;;;;15.70;99.90;;;;;;5048923;28;20380;-70
2022/10/15 12:34:45;;;;;;;;;;;15.60;99.90;;;;;;5046537;28;19978;-70
2022/10/15 12:37:16;;;;;;;;;;;15.60;99.90;;;;;;5066561;28;19955;-70
2022/10/15 12:39:42;;;;;;;;;;;15.60;99.90;;;;;;5053465;28;20555;-70
2022/10/15 12:42:26;;;;;;;;;;;15.60;99.90;;;;;;5062126;28;19924;-69
2022/10/15 12:44:52;;;;;;;;;;;15.70;99.90;;;;;;5069626;28;20350;-70
2022/10/15 12:47:50;;;;;;;;;;;15.70;99.90;;;;;;5067738;28;19956;-69
2022/10/15 12:50:20;;;;;;;;;;;15.70;99.90;;;;;;5028392;28;19932;-70
2022/10/15 12:52:55;;;;;;;;;;;15.60;99.90;;;;;;5051599;28;19924;-70
2022/10/15 12:55:23;;;;;;;;;;;15.70;99.90;;;;;;5067745;28;20333;-68
2022/10/15 12:58:07;;;;;;;;;;;15.60;99.90;;;;;;5068991;28;19924;-69
2022/10/15 13:00:35;;;;;;;;;;;15.60;99.90;;;;;;5069246;28;19924;-68
2022/10/15 13:03:14;;;;;;;;;;;15.60;99.90;;;;;;5062789;28;19978;-68
2022/10/15 13:05:40;;;;;;;;;;;15.60;99.90;;;;;;5063081;28;19930;-68
2022/10/15 13:08:11;;;;;;;;;;;15.60;99.90;;;;;;5068011;28;19999;-68
2022/10/15 13:10:38;;;;;;;;;;;15.60;99.90;;;;;;5071518;28;19928;-68
2022/10/15 13:13:10;;;;;;;;;;;15.60;99.90;;;;;;5070034;28;19970;-68
2022/10/15 13:15:35;;;;;;;;;;;15.60;99.90;;;;;;5068490;28;20019;-68
2022/10/15 13:18:05;;;;;;;;;;;15.50;99.90;;;;;;5060864;28;20336;-69
2022/10/15 13:20:30;;;;;;;;;;;15.50;99.90;;;;;;5080005;28;20033;-68
2022/10/15 13:23:06;;;;;;;;;;;15.40;99.90;;;;;;5072036;28;20377;-67
2022/10/15 13:25:32;;;;;;;;;;;15.40;99.90;;;;;;5046580;28;19921;-68
2022/10/15 13:27:58;;;;;;;;;;;15.40;99.90;;;;;;5067616;28;19920;-68
2022/10/15 13:30:23;;;;;;;;;;;15.40;99.90;;;;;;5065785;28;20269;-68
2022/10/15 13:32:50;;;;;;;;;;;15.30;99.90;;;;;;5071399;28;19940;-68
2022/10/15 13:35:21;;;;;;;;;;;15.30;99.90;;;;;;5063680;28;20003;-67
2022/10/15 13:37:47;;;;;;;;;;;15.30;99.90;;;;;;5057029;28;19932;-68
2022/10/15 13:40:23;;;;;;;;;;;15.30;99.90;;;;;;5063712;28;19921;-68
2022/10/15 13:43:05;;;;;;;;;;;15.30;99.90;;;;;;5066277;28;19925;-68
2022/10/15 13:45:31;;;;;;;;;;;15.30;99.90;;;;;;5068365;28;19929;-68
2022/10/15 13:47:57;;;;;;;;;;;15.30;99.90;;;;;;5066401;28;19924;-68
2022/10/15 13:50:24;;;;;;;;;;;15.20;99.90;;;;;;5067470;28;19924;-68
2022/10/15 13:52:52;;;;;;;;;;;15.20;99.90;;;;;;5070613;28;19954;-68
2022/10/15 13:55:23;;;;;;;;;;;15.20;99.90;;;;;;5068759;28;19931;-68
2022/10/15 13:57:49;;;;;;;;;;;15.10;99.90;;;;;;5066492;28;20287;-68
2022/10/15 14:00:23;;;;;;;;;;;15.20;99.90;;;;;;5064024;28;19924;-68
2022/10/15 14:03:07;;;;;;;;;;;15.20;99.90;;;;;;5074204;28;19955;-68
2022/10/15 14:05:32;;;;;;;;;;;15.20;99.90;;;;;;5067998;28;19928;-68
2022/10/15 14:07:58;;;;;;;;;;;15.30;99.90;;;;;;5057592;28;20352;-68
2022/10/15 14:10:23;;;;;;;;;;;15.30;99.90;;;;;;5057385;28;19928;-68
2022/10/15 14:12:51;;;;;;;;;;;15.20;99.90;;;;;;5059724;28;20378;-68
2022/10/15 14:15:35;;;;;;;;;;;15.30;99.90;;;;;;5052156;28;19931;-68
2022/10/15 14:18:00;;;;;;;;;;;15.20;99.90;;;;;;5064858;28;19924;-68
2022/10/15 14:20:26;;;;;;;;;;;15.20;99.90;;;;;;5067467;28;20093;-67
2022/10/15 14:22:51;;;;;;;;;;;15.20;99.90;;;;;;5071649;28;19960;-67